createdAt,value
2023-03-03T00:02:44.148Z,24.27
2023-03-03T00:07:47.983Z,46.23
2023-03-03T00:12:51.099Z,36.43
2023-03-03T00:17:54.018Z,39.47
2023-03-03T00:22:59.394Z,25.70
2023-03-03T00:28:15.320Z,41.97
2023-03-03T00:33:34.028Z,43.70
2023-03-03T00:38:39.244Z,49.83
2023-03-03T00:43:42.258Z,22.93
2023-03-03T00:48:45.062Z,35.63
2023-03-03T00:53:47.646Z,35.00
2023-03-03T00:58:50.986Z,45.50
2023-03-03T01:03:56.115Z,46.47
2023-03-03T01:08:59.477Z,42.03
2023-03-03T01:14:02.376Z,32.03
2023-03-03T01:19:05.092Z,42.23
2023-03-03T01:24:07.568Z,38.13
2023-03-03T01:29:10.135Z,31.57
2023-03-03T01:34:12.689Z,43.73
2023-03-03T01:39:15.582Z,35.57
2023-03-03T01:44:18.172Z,50.03
2023-03-03T01:49:30.854Z,26.80
2023-03-03T01:54:41.238Z,18.33
2023-03-03T01:59:48.329Z,26.13
2023-03-03T02:04:51.029Z,22.57
2023-03-03T02:09:59.680Z,17.73
2023-03-03T02:15:02.378Z,16.30
2023-03-03T02:20:11.292Z,22.10
2023-03-03T02:25:24.660Z,19.80
2023-03-03T02:30:27.740Z,17.20
2023-03-03T02:35:36.257Z,16.10
2023-03-03T02:40:44.110Z,24.10
2023-03-03T02:45:46.928Z,16.23
2023-03-03T02:50:50.113Z,17.00
2023-03-03T02:55:52.721Z,13.30
2023-03-03T03:00:55.734Z,14.70
2023-03-03T03:05:59.342Z,19.83
2023-03-03T03:11:03.849Z,15.90
2023-03-03T03:16:06.956Z,18.03
2023-03-03T03:21:11.759Z,14.27
2023-03-03T03:26:15.616Z,10.83
2023-03-03T03:31:21.033Z,12.90
2023-03-03T03:36:23.708Z,11.93
2023-03-03T03:41:27.246Z,16.07
2023-03-03T03:46:29.894Z,16.43
2023-03-03T03:51:34.061Z,12.37
2023-03-03T03:56:36.752Z,12.87
2023-03-03T04:01:40.023Z,15.03
2023-03-03T04:06:42.721Z,15.73
2023-03-03T04:11:45.358Z,14.13
2023-03-03T04:16:49.449Z,13.67
2023-03-03T04:21:52.967Z,17.07
2023-03-03T04:26:55.491Z,15.23
2023-03-03T04:31:58.278Z,19.73
2023-03-03T04:37:02.000Z,17.03
2023-03-03T04:42:05.345Z,13.77
2023-03-03T04:47:08.613Z,16.47
2023-03-03T04:52:11.752Z,10.10
2023-03-03T04:57:14.605Z,14.27
2023-03-03T05:02:18.281Z,12.57
2023-03-03T05:07:22.062Z,16.13
2023-03-03T05:12:24.622Z,13.10
2023-03-03T05:17:27.125Z,10.23
2023-03-03T05:22:29.586Z,11.27
2023-03-03T05:27:32.136Z,14.47
2023-03-03T05:32:36.270Z,12.17
2023-03-03T05:37:42.737Z,10.93
2023-03-03T05:42:45.832Z,13.33
2023-03-03T05:47:48.927Z,16.73
2023-03-03T05:52:52.847Z,11.97
2023-03-03T05:57:55.698Z,11.57
2023-03-03T06:02:58.253Z,18.03
2023-03-03T06:08:01.356Z,13.73
2023-03-03T06:13:03.833Z,12.50
2023-03-03T06:18:06.493Z,16.83
2023-03-03T06:23:10.309Z,15.03
2023-03-03T06:28:13.786Z,16.23
2023-03-03T06:33:16.405Z,20.27
2023-03-03T06:38:19.535Z,23.53
2023-03-03T06:43:22.045Z,20.20
2023-03-03T06:48:24.715Z,17.67
2023-03-03T06:53:27.620Z,17.77
2023-03-03T06:58:30.046Z,18.47
2023-03-03T07:03:36.090Z,15.60
2023-03-03T07:08:41.536Z,12.03
2023-03-03T07:13:49.887Z,15.07
2023-03-03T07:18:59.053Z,12.93
2023-03-03T07:24:16.886Z,13.23
2023-03-03T07:29:26.481Z,10.83
2023-03-03T07:34:40.249Z,18.07
2023-03-03T07:39:45.872Z,12.80
2023-03-03T07:44:52.412Z,13.00
2023-03-03T07:49:58.225Z,10.63
2023-03-03T07:55:18.446Z,14.70
2023-03-03T08:00:20.992Z,13.77
2023-03-03T08:05:33.850Z,10.87
2023-03-03T08:10:51.480Z,11.17
2023-03-03T08:16:09.552Z,10.07
2023-03-03T08:21:27.788Z,10.57
2023-03-03T08:26:30.340Z,10.97
2023-03-03T08:31:41.184Z,16.33
2023-03-03T08:36:44.459Z,10.40
2023-03-03T08:41:47.925Z,11.93
2023-03-03T08:46:50.518Z,16.20
2023-03-03T08:51:53.148Z,17.43
2023-03-03T08:56:55.674Z,18.13
2023-03-03T09:01:58.303Z,15.80
2023-03-03T09:07:00.942Z,13.00
2023-03-03T09:12:29.483Z,26.13
2023-03-03T09:17:35.855Z,20.53
2023-03-03T09:22:38.892Z,12.33
2023-03-03T09:27:41.740Z,19.40
2023-03-03T09:32:44.411Z,17.60
2023-03-03T09:37:50.929Z,12.73
2023-03-03T09:43:13.657Z,10.70
2023-03-03T09:48:27.498Z,13.33
2023-03-03T09:53:45.000Z,17.67
2023-03-03T09:59:16.406Z,9.53
2023-03-03T10:04:52.730Z,14.10
2023-03-03T10:10:14.113Z,20.43
2023-03-03T10:15:47.776Z,15.80
2023-03-03T10:21:00.751Z,18.03
2023-03-03T10:26:25.080Z,17.17
2023-03-03T10:31:51.650Z,15.33
2023-03-03T10:37:21.260Z,15.77
2023-03-03T10:42:45.008Z,15.20
2023-03-03T10:48:06.009Z,14.00
2023-03-03T10:53:34.656Z,11.67
2023-03-03T10:58:40.420Z,10.33
2023-03-03T11:04:16.419Z,10.60
2023-03-03T11:09:38.285Z,11.80
2023-03-03T11:14:55.646Z,9.00
2023-03-03T11:20:22.762Z,26.57
2023-03-03T11:25:36.116Z,30.90
2023-03-03T11:30:54.764Z,28.70
2023-03-03T11:36:25.790Z,23.00
2023-03-03T11:41:42.573Z,18.27
2023-03-03T11:47:00.387Z,19.53
2023-03-03T11:52:32.404Z,23.23
2023-03-03T11:58:03.085Z,13.53
2023-03-03T12:03:13.257Z,27.10
2023-03-03T12:08:36.201Z,34.77
2023-03-03T12:14:00.927Z,24.10
2023-03-03T12:19:22.255Z,28.57
2023-03-03T12:24:43.329Z,27.57
2023-03-03T12:30:13.353Z,24.97
2023-03-03T12:35:18.939Z,24.47
2023-03-03T12:40:31.726Z,17.87
2023-03-03T12:45:42.192Z,31.70
2023-03-03T12:51:03.614Z,23.00
2023-03-03T12:56:14.170Z,26.63
2023-03-03T13:01:44.004Z,28.30
2023-03-03T13:07:02.162Z,26.67
2023-03-03T13:12:28.025Z,29.87
2023-03-03T13:17:57.883Z,24.03
2023-03-03T13:23:12.702Z,19.70
2023-03-03T13:28:37.286Z,31.30
2023-03-03T13:33:51.376Z,21.23
2023-03-03T13:38:58.891Z,20.33
2023-03-03T13:44:14.497Z,21.63
2023-03-03T13:49:54.281Z,19.87
2023-03-03T13:55:18.057Z,24.40
2023-03-03T14:00:45.642Z,15.93
2023-03-03T14:05:59.510Z,26.80
2023-03-03T14:11:19.400Z,20.93
2023-03-03T14:16:54.792Z,17.83
2023-03-03T14:22:12.293Z,23.33
2023-03-03T14:27:26.931Z,8.17
2023-03-03T14:32:44.452Z,14.33
2023-03-03T14:37:50.310Z,15.47
2023-03-03T14:42:52.849Z,7.53
2023-03-03T14:47:55.592Z,14.10
2023-03-03T14:53:19.807Z,19.80
2023-03-03T14:58:35.204Z,19.13
2023-03-03T15:03:38.200Z,19.73
2023-03-03T15:08:42.579Z,14.43
2023-03-03T15:13:45.210Z,17.00
2023-03-03T15:19:02.401Z,14.37
2023-03-03T15:24:24.423Z,14.67
2023-03-03T15:29:32.114Z,13.77
2023-03-03T15:34:43.395Z,15.77
2023-03-03T15:39:51.972Z,16.40
2023-03-03T15:44:59.566Z,15.23
2023-03-03T15:50:40.447Z,15.50
2023-03-03T15:55:45.899Z,14.30
2023-03-03T16:01:11.131Z,15.33
2023-03-03T16:06:41.142Z,17.13
2023-03-03T16:12:15.877Z,15.90
2023-03-03T16:17:24.031Z,12.50
2023-03-03T16:22:58.173Z,16.77
2023-03-03T16:28:22.835Z,17.40
2023-03-03T16:33:31.202Z,12.77
2023-03-03T16:38:44.142Z,12.30
2023-03-03T16:44:20.804Z,20.67
2023-03-03T16:49:39.368Z,13.83
2023-03-03T16:55:11.331Z,14.50
2023-03-03T17:00:20.055Z,20.43
2023-03-03T17:05:41.358Z,13.43
2023-03-03T17:11:01.032Z,14.93
2023-03-03T17:16:17.801Z,17.97
2023-03-03T17:21:35.669Z,14.60
2023-03-03T17:27:13.026Z,14.17
2023-03-03T17:32:30.634Z,27.20
2023-03-03T17:37:44.729Z,27.67
2023-03-03T17:43:14.195Z,34.87
2023-03-03T17:48:23.178Z,30.93
2023-03-03T17:53:44.101Z,29.13
2023-03-03T17:59:01.779Z,31.33
2023-03-03T18:04:26.437Z,34.93
2023-03-03T18:09:40.839Z,33.57
2023-03-03T18:15:05.343Z,36.97
2023-03-03T18:20:10.938Z,36.20
2023-03-03T18:25:16.746Z,36.60
2023-03-03T18:30:22.226Z,29.37
2023-03-03T18:35:38.827Z,26.93
2023-03-03T18:41:21.629Z,33.53
2023-03-03T18:46:24.352Z,7.83
2023-03-03T18:51:39.120Z,8.57
2023-03-03T18:56:53.279Z,16.73
2023-03-03T19:02:13.777Z,14.33
2023-03-03T19:07:28.293Z,17.17
2023-03-03T19:12:45.659Z,12.23
2023-03-03T19:17:50.036Z,13.10
2023-03-03T19:23:05.744Z,6.00
2023-03-03T19:28:20.288Z,12.17
2023-03-03T19:33:41.317Z,15.17
2023-03-03T19:39:17.724Z,12.73
2023-03-03T19:44:31.861Z,17.03
2023-03-03T19:50:06.887Z,10.13
2023-03-03T19:55:22.470Z,14.73
2023-03-03T20:00:38.926Z,13.40
2023-03-03T20:05:52.451Z,5.20
2023-03-03T20:11:17.068Z,6.90
2023-03-03T20:16:33.604Z,11.47
2023-03-03T20:21:43.471Z,8.47
2023-03-03T20:27:05.318Z,12.07
2023-03-03T20:32:32.837Z,8.93
2023-03-03T20:37:50.109Z,18.07
2023-03-03T20:43:24.569Z,17.50
2023-03-03T20:48:45.404Z,14.03
2023-03-03T20:54:11.871Z,8.53
2023-03-03T20:59:32.079Z,11.17
2023-03-03T21:04:36.291Z,13.07
2023-03-03T21:09:39.713Z,8.07
2023-03-03T21:14:42.258Z,4.77
2023-03-03T21:19:44.969Z,12.23
2023-03-03T21:24:48.760Z,9.97
2023-03-03T21:30:07.394Z,10.13
2023-03-03T21:35:11.693Z,21.10
2023-03-03T21:40:30.230Z,13.03
2023-03-03T21:45:32.849Z,13.13
2023-03-03T21:50:36.182Z,10.13
2023-03-03T21:55:38.563Z,11.50
2023-03-03T22:00:41.087Z,14.50
2023-03-03T22:05:43.995Z,9.10
2023-03-03T22:10:50.876Z,15.67
2023-03-03T22:15:55.221Z,11.00
2023-03-03T22:20:57.777Z,15.57
2023-03-03T22:26:02.178Z,11.53
2023-03-03T22:31:04.889Z,8.83
2023-03-03T22:36:08.410Z,13.80
2023-03-03T22:41:11.202Z,18.97
2023-03-03T22:46:15.172Z,8.97
2023-03-03T22:51:18.367Z,12.57
2023-03-03T22:56:20.988Z,11.67
2023-03-03T23:01:23.529Z,9.70
2023-03-03T23:06:26.028Z,14.80
2023-03-03T23:11:28.627Z,19.10
2023-03-03T23:16:31.301Z,18.93
2023-03-03T23:21:33.943Z,11.57
2023-03-03T23:26:36.821Z,9.87
2023-03-03T23:31:39.445Z,7.40
2023-03-03T23:36:42.016Z,6.90
2023-03-03T23:41:45.246Z,10.00
2023-03-03T23:46:47.820Z,10.07
2023-03-03T23:51:50.357Z,5.80
2023-03-03T23:56:52.907Z,7.53
